Bethesda, Tennessee
Current Conditions -  °F | °C
As of 6:53 PM on Thursday 27 Nov 2014 (Local Time) from KBNA Reporting Station
Broken Clouds Broken Clouds  
Wind Chill: 24°   Ceiling: 4000
Heat Index: 32°   Visibility: 10mi
Dew Point: 20°   Wind: 9mph
Humidity: 61%   Direction: 340°NNW
Pressure: 30.48"   Gusts: NA
Location:  35.7808°N, 86.7221°W
Report Text: KBNA 280053Z 34008KT 10SM BKN040 00/M07 A3048 RMK AO2 SLP325 T00001067
Loading
Personal Weather Stations






























Interactive Weather Map New forecast layout! Learn more

10-Day Weather Forecast

Advertisements
Track Severe Weather on mobile